Ride Results

Tom Quilty Gold Cup (12-06-1976)
Ride distance: 160.0 km

Outcomes - Tom Quilty Gold Cup (12-06-1976)
Division No. of Entries Retired / DNE Completed Withdrawn Ineligible V/O Percentage Completed
OP 49 - 32 3 - 14 65.31%
Totals 49 - 32 3 - 14 65.31%
Results - Tom Quilty Gold Cup (12-06-1976)
No. Rider Horse Place Time Leg Speeds Total
Km/Hr
H/R bpm
Open
14 Robert Thompson Sanroblee Joe 1 9:32:22 14.4, 16.1, 12.9, 33.6 16.77 35, 38, 49, 50, 62 (Avg:49)
48 Bob Sample Sharahd Sheek 2 9:34:57 14.3, 16.5, 12.9, 30.9 16.70 38, 50, 58, 60, 62 (Avg:57)
42 Sue May Karella Buckshot 3 (BC) 9:53:33 13.5, 16.1, 13.1, 28.5 16.17 31, 36, 44, 42, 50 (Avg:43)
41 Warren Webb Bannerman 4 9:54:03 13.1, 14.8, 14.5, 28.5 16.16 38, 47, 44, 47, 48 (Avg:46)
46 Louise Lewis Jogalong 5 9:54:30 13.0, 14.8, 14.9, 26.9 16.15 32, 40, 44, 44, 46 (Avg:43)
5 Sam Timms Tallyho 6 10:01:08 12.8, 14.7, 14.3, 28.5 15.97 33, 40, 43, 46, 53 (Avg:45)
8 Felicity Stevenson Speedo 7 10:03:12 13.7, 14.7, 13.7, 26.3 15.92 40, 52, 57, 63, 67 (Avg:59)
13 Larry Ross El Teco 8 10:18:21 12.0, 15.6, 13.8, 25.7 15.53 34, 44, 50, 56, 59 (Avg:52)
47 Erica Williams Noddy 9 11:33:26 11.3, 14.9, 12.1, 19.4 13.84 33, 44, 48, 52, 50 (Avg:48)
19 Guy Dawson Zeus 10 11:33:50 11.9, 14.7, 11.5, 19.4 13.84 29, 40, 44, 42, 48 (Avg:43)
2 Marg Rose Grand Marquis 11 11:42:49 12.2, 14.1, 10.8, 20.6 13.66 44, 46, 52, 46, 52 (Avg:49)
4 Betty Serpell Scimitar Quick Silver 12 11:49:19 12.4, 13.2, 11.3, 19.3 13.53 35, 40, 42, 47, 48 (Avg:44)
20 Ali Smith Rockybar Mission 13 11:50:11 12.4, 13.6, 10.4, 21.5 13.52 34, 44, 48, 46, 52 (Avg:47)
12 Phillip Males Ralvon Caribu 14 11:58:30 12.2, 13.6, 10.5, 20.3 13.36 38, 53, 50, 56, 54 (Avg:53)
9 Bob Carmicheal Granite 15 12:20:40 12.4, 13.6, 10.0, 17.8 12.96 31, 39, 44, 43, 54 (Avg:45)
21 Sharyn Carmichael Grand Rajah 16 12:21:33 12.4, 13.6, 10.0, 17.9 12.95 32, 42, 45, 48, 52 (Avg:46)
17 Joyce Corbett Tequila 17 13:22:11 10.9, 12.4, 9.2, 18.2 11.97 33, 39, 44, 48, 42 (Avg:43)
22 Haron Mortimer Candy 18 13:32:10 12.0, 13.1, 7.5, 20.9 11.82 33, 46, 48, 50, 56 (Avg:50)
49 June Petersen Springmead Electra 19 14:02:31 11.7, 12.9, 7.6, 17.2 11.39 36, 44, 52, 42, 52 (Avg:47)
45 Sue Parsons Shamal 20 14:18:40 10.6, 12.1, 8.2, 16.5 11.18 34, 40, 48, 56, 48 (Avg:48)
16 Camille Ross Vondel Park Moongold 21 14:54:00 11.7, 10.8, 7.7, 15.1 10.74 39, 48, 48, 48, 51 (Avg:48)
23 Laurie Short Apache 22 15:00:00 10.9, 12.2, 7.2, 15.3 10.67 36, 52, 50, 48, 46 (Avg:49)
40 Val Males Silver Crystal 23 15:29:00 10.1, 11.6, 7.8, 13.1 10.33 36, 48, 60, 60, 52 (Avg:55)
24 Barrie Clarke Ralvon Radiance 24 15:30:30 11.5, 11.6, 7.1, 13.4 10.32 39, 48, 40, 44, 46 (Avg:44)
15 Brenda Mcinnes Little Apache 25 15:39:00 12.4, 12.6, 6.8, 11.7 10.22 35, 52, 55, 56, 52 (Avg:53)
10 Terry Ryan Radek 26 16:05:00 10.3, 11.3, 7.7, 11.2 9.95 44, 50, 44, 48, 51 (Avg:48)
35 Paul Grieves Jenny 27 16:10:00 10.4, 10.9, 7.8, 11.1 9.90 43, 41, 50, 44, 48 (Avg:45)
11 David Stocker Faraway Pilbara 28 16:16:00 10.2, 11.3, 7.7, 10.8 9.84 37, 40, 56, 60, 60 (Avg:54)
25 Jim Rogan Royal Paint 29 16:37:00 11.1, 11.1, 6.7, 11.4 9.63 35, 56, 60, 60, 60 (Avg:59)
26 Sam Mavin Mandingo 30 16:48:30 8.6, 9.8, 8.4, 11.9 9.52 30, 40, 41, 50, 44 (Avg:43)
36 Terry Wood Big Fella 31 17:34:00 8.6, 9.5, 7.4, 11.9 9.11 36, 38, 45, 48, 41 (Avg:43)
1 Jeff Marshall Nimbus 32 17:35:00 8.5, 9.5, 7.4, 11.9 9.10 44, 49, 54, 64, 63 (Avg:57)
38 Shirley Beresford Sonny Lame L4 0:00:00 11.9, 13.1, 9.1, 19.0 - 35, 44, 50, 45, 66 (Avg:51)
37 Patsie Manning Tahoe Lame L4 0:00:00 11.7, 14.5, 11.0, 20.3 - 39, 44, 56, 52, 62 (Avg:53)
18 Norma Pfeiffer Miss Chips Lame L4 0:00:00 11.9, 12.0, 6.8, 10.4 - 41, 48, 52, 64, 60 (Avg:56)
43 Robyn Daines Stormy Heart Rate L3 0:00:00 10.3, 11.1, 8.5 - 40, 48, 66, 72 (Avg:62)
31 Russel Derwent Shannon Lame L3 0:00:00 9.7, 10.5, 7.8 - 36, 40, 53, 66 (Avg:53)
32 Jan Omalley King Heart Rate L3 0:00:00 11.1, 11.1, 6.7 - 37, 50, 67, 70 (Avg:62)
7 Col Adams Rob Roy Lame L2 0:00:00 12.8, 14.7 - 40, 48, 60 (Avg:54)
29 Graham Court Drift Lame L2 0:00:00 12.0, 14.1 - 30, 33, 44 (Avg:38)
30 Rita Francis Shah Abbis Lame L2 0:00:00 11.6, 9.6 - 44, 48, 43 (Avg:45)
27 Reg Kennedy Chance Lame L2 0:00:00 14.2, 16.5 - 40, 43, 46 (Avg:44)
34 Judy Shore Rajah Widthdrawn L2 0:00:00 - - 39, 28, 60 (Avg:44)
39 Lindsay Brown Hi-Fred Heart Rate L1 0:00:00 10.2 - 40, 65 (Avg:65)
6 Merle Hill Al-meraine Riff-raff Lame L1 0:00:00 11.3 - 36, 36 (Avg:36)
28 Ross Mortimer Faraway Varos Lame L1 0:00:00 12.5 - 36, 60 (Avg:60)
33 Jenny Sanders Markus Heart Rate L1 0:00:00 9.9 - 38, 61 (Avg:61)
3 Carl Slattery Conradclo Widthdrawn L1 0:00:00 - - 44, 52 (Avg:52)
44 Raymond Smith Markham Widthdrawn P/R 0:00:00 - - 40